sensor_id;sensor_type;location;lat;lon;timestamp;P1;durP1;ratioP1;P2;durP2;ratioP2
8944;SDS011;4507;40.232;29.132;2023-03-25T00:01:56;79.73;;;58.60;;
8944;SDS011;4507;40.232;29.132;2023-03-25T00:04:25;76.97;;;56.10;;
8944;SDS011;4507;40.232;29.132;2023-03-25T00:06:54;78.10;;;58.40;;
8944;SDS011;4507;40.232;29.132;2023-03-25T00:09:23;80.00;;;58.77;;
8944;SDS011;4507;40.232;29.132;2023-03-25T00:11:52;86.33;;;61.97;;
8944;SDS011;4507;40.232;29.132;2023-03-25T00:14:22;88.37;;;63.33;;
8944;SDS011;4507;40.232;29.132;2023-03-25T00:16:51;88.50;;;61.00;;
8944;SDS011;4507;40.232;29.132;2023-03-25T00:19:20;86.47;;;59.17;;
8944;SDS011;4507;40.232;29.132;2023-03-25T00:21:49;87.50;;;62.90;;
8944;SDS011;4507;40.232;29.132;2023-03-25T00:24:18;96.23;;;70.33;;
8944;SDS011;4507;40.232;29.132;2023-03-25T00:26:47;88.00;;;69.60;;
8944;SDS011;4507;40.232;29.132;2023-03-25T00:29:16;92.80;;;67.27;;
8944;SDS011;4507;40.232;29.132;2023-03-25T00:31:46;89.67;;;67.40;;
8944;SDS011;4507;40.232;29.132;2023-03-25T00:34:16;100.10;;;72.03;;
8944;SDS011;4507;40.232;29.132;2023-03-25T00:36:46;113.67;;;80.00;;
8944;SDS011;4507;40.232;29.132;2023-03-25T00:39:15;87.70;;;63.73;;
8944;SDS011;4507;40.232;29.132;2023-03-25T00:41:44;113.37;;;72.73;;
8944;SDS011;4507;40.232;29.132;2023-03-25T00:44:14;105.57;;;74.27;;
8944;SDS011;4507;40.232;29.132;2023-03-25T00:46:43;106.13;;;66.93;;
8944;SDS011;4507;40.232;29.132;2023-03-25T00:49:14;96.17;;;67.23;;
8944;SDS011;4507;40.232;29.132;2023-03-25T00:51:43;94.73;;;65.23;;
8944;SDS011;4507;40.232;29.132;2023-03-25T00:54:19;77.13;;;58.73;;
8944;SDS011;4507;40.232;29.132;2023-03-25T00:56:49;88.23;;;66.00;;
8944;SDS011;4507;40.232;29.132;2023-03-25T00:59:20;83.50;;;61.67;;
8944;SDS011;4507;40.232;29.132;2023-03-25T01:01:49;97.23;;;70.70;;
8944;SDS011;4507;40.232;29.132;2023-03-25T01:04:20;89.37;;;68.30;;
8944;SDS011;4507;40.232;29.132;2023-03-25T01:06:49;90.47;;;65.17;;
8944;SDS011;4507;40.232;29.132;2023-03-25T01:09:19;97.97;;;71.80;;
8944;SDS011;4507;40.232;29.132;2023-03-25T01:11:49;107.37;;;72.50;;
8944;SDS011;4507;40.232;29.132;2023-03-25T01:14:19;94.50;;;65.87;;
8944;SDS011;4507;40.232;29.132;2023-03-25T01:16:50;114.47;;;79.50;;
8944;SDS011;4507;40.232;29.132;2023-03-25T01:19:20;129.37;;;88.17;;
8944;SDS011;4507;40.232;29.132;2023-03-25T01:21:52;134.87;;;94.17;;
8944;SDS011;4507;40.232;29.132;2023-03-25T01:24:21;121.50;;;86.43;;
8944;SDS011;4507;40.232;29.132;2023-03-25T01:26:50;104.60;;;75.37;;
8944;SDS011;4507;40.232;29.132;2023-03-25T01:29:19;110.10;;;74.20;;
8944;SDS011;4507;40.232;29.132;2023-03-25T01:31:49;110.70;;;76.83;;
8944;SDS011;4507;40.232;29.132;2023-03-25T01:34:20;122.23;;;86.10;;
8944;SDS011;4507;40.232;29.132;2023-03-25T01:36:51;117.23;;;80.00;;
8944;SDS011;4507;40.232;29.132;2023-03-25T01:39:21;133.10;;;91.87;;
8944;SDS011;4507;40.232;29.132;2023-03-25T01:41:50;117.40;;;86.87;;
8944;SDS011;4507;40.232;29.132;2023-03-25T01:47:27;125.27;;;88.87;;
8944;SDS011;4507;40.232;29.132;2023-03-25T01:49:58;127.77;;;89.37;;
8944;SDS011;4507;40.232;29.132;2023-03-25T01:52:27;130.60;;;85.90;;
8944;SDS011;4507;40.232;29.132;2023-03-25T01:54:57;110.57;;;77.60;;
8944;SDS011;4507;40.232;29.132;2023-03-25T01:57:27;118.03;;;78.00;;
8944;SDS011;4507;40.232;29.132;2023-03-25T01:59:58;108.87;;;74.07;;
8944;SDS011;4507;40.232;29.132;2023-03-25T02:02:37;114.17;;;70.40;;
8944;SDS011;4507;40.232;29.132;2023-03-25T02:05:09;123.70;;;71.30;;
8944;SDS011;4507;40.232;29.132;2023-03-25T02:07:46;111.70;;;69.67;;
8944;SDS011;4507;40.232;29.132;2023-03-25T02:10:35;104.67;;;70.13;;
8944;SDS011;4507;40.232;29.132;2023-03-25T02:13:05;109.40;;;73.80;;
8944;SDS011;4507;40.232;29.132;2023-03-25T02:15:38;119.33;;;86.87;;
8944;SDS011;4507;40.232;29.132;2023-03-25T02:18:20;105.93;;;79.50;;
8944;SDS011;4507;40.232;29.132;2023-03-25T02:27:14;126.37;;;92.73;;
8944;SDS011;4507;40.232;29.132;2023-03-25T02:36:05;120.87;;;76.80;;
8944;SDS011;4507;40.232;29.132;2023-03-25T02:39:07;98.13;;;69.90;;
8944;SDS011;4507;40.232;29.132;2023-03-25T02:41:42;104.33;;;73.27;;
8944;SDS011;4507;40.232;29.132;2023-03-25T02:44:22;104.20;;;76.70;;
8944;SDS011;4507;40.232;29.132;2023-03-25T02:46:58;114.33;;;80.50;;
8944;SDS011;4507;40.232;29.132;2023-03-25T02:49:30;105.43;;;70.77;;
8944;SDS011;4507;40.232;29.132;2023-03-25T02:52:04;115.97;;;79.20;;
8944;SDS011;4507;40.232;29.132;2023-03-25T02:54:38;102.47;;;72.77;;
8944;SDS011;4507;40.232;29.132;2023-03-25T02:57:11;112.47;;;80.03;;
8944;SDS011;4507;40.232;29.132;2023-03-25T02:59:45;139.67;;;97.57;;
8944;SDS011;4507;40.232;29.132;2023-03-25T03:02:33;128.37;;;89.53;;
8944;SDS011;4507;40.232;29.132;2023-03-25T03:05:18;108.57;;;81.10;;
8944;SDS011;4507;40.232;29.132;2023-03-25T03:07:51;147.87;;;86.17;;
8944;SDS011;4507;40.232;29.132;2023-03-25T03:10:28;110.43;;;77.17;;
8944;SDS011;4507;40.232;29.132;2023-03-25T03:13:06;100.90;;;70.93;;
8944;SDS011;4507;40.232;29.132;2023-03-25T03:15:45;100.33;;;72.10;;
8944;SDS011;4507;40.232;29.132;2023-03-25T03:18:22;107.40;;;74.37;;
8944;SDS011;4507;40.232;29.132;2023-03-25T03:21:06;111.43;;;78.90;;
8944;SDS011;4507;40.232;29.132;2023-03-25T03:23:41;109.00;;;72.20;;
8944;SDS011;4507;40.232;29.132;2023-03-25T03:26:22;115.17;;;79.37;;
8944;SDS011;4507;40.232;29.132;2023-03-25T03:28:57;118.70;;;83.33;;
8944;SDS011;4507;40.232;29.132;2023-03-25T03:31:34;86.00;;;65.17;;
8944;SDS011;4507;40.232;29.132;2023-03-25T03:34:30;92.70;;;66.30;;
8944;SDS011;4507;40.232;29.132;2023-03-25T03:37:06;105.07;;;71.77;;
8944;SDS011;4507;40.232;29.132;2023-03-25T03:39:38;100.37;;;71.87;;
8944;SDS011;4507;40.232;29.132;2023-03-25T03:42:12;104.30;;;72.83;;
8944;SDS011;4507;40.232;29.132;2023-03-25T03:45:04;101.30;;;69.67;;
8944;SDS011;4507;40.232;29.132;2023-03-25T03:47:36;102.93;;;71.27;;
8944;SDS011;4507;40.232;29.132;2023-03-25T03:50:09;92.47;;;65.57;;
8944;SDS011;4507;40.232;29.132;2023-03-25T03:52:42;109.77;;;62.17;;
8944;SDS011;4507;40.232;29.132;2023-03-25T03:55:15;117.17;;;79.03;;
8944;SDS011;4507;40.232;29.132;2023-03-25T03:57:50;120.20;;;75.60;;
8944;SDS011;4507;40.232;29.132;2023-03-25T04:00:25;113.03;;;75.60;;
8944;SDS011;4507;40.232;29.132;2023-03-25T04:02:57;112.73;;;71.53;;
8944;SDS011;4507;40.232;29.132;2023-03-25T04:05:32;109.87;;;71.63;;
8944;SDS011;4507;40.232;29.132;2023-03-25T04:08:05;112.17;;;69.47;;
8944;SDS011;4507;40.232;29.132;2023-03-25T04:10:40;159.27;;;74.97;;
8944;SDS011;4507;40.232;29.132;2023-03-25T04:13:20;122.50;;;76.47;;
8944;SDS011;4507;40.232;29.132;2023-03-25T04:15:50;119.50;;;77.33;;
8944;SDS011;4507;40.232;29.132;2023-03-25T04:18:19;145.83;;;86.17;;
8944;SDS011;4507;40.232;29.132;2023-03-25T04:20:50;111.10;;;71.90;;
8944;SDS011;4507;40.232;29.132;2023-03-25T04:23:19;119.30;;;76.23;;
8944;SDS011;4507;40.232;29.132;2023-03-25T04:25:48;131.30;;;86.07;;
8944;SDS011;4507;40.232;29.132;2023-03-25T04:28:21;138.13;;;90.37;;
8944;SDS011;4507;40.232;29.132;2023-03-25T04:30:51;128.10;;;87.37;;
8944;SDS011;4507;40.232;29.132;2023-03-25T04:33:21;163.60;;;89.43;;
8944;SDS011;4507;40.232;29.132;2023-03-25T04:35:50;132.37;;;83.10;;
8944;SDS011;4507;40.232;29.132;2023-03-25T04:38:20;136.63;;;79.37;;
8944;SDS011;4507;40.232;29.132;2023-03-25T04:40:49;123.03;;;81.90;;
8944;SDS011;4507;40.232;29.132;2023-03-25T04:43:18;122.77;;;75.53;;
8944;SDS011;4507;40.232;29.132;2023-03-25T04:45:48;115.60;;;72.57;;
8944;SDS011;4507;40.232;29.132;2023-03-25T04:48:21;120.53;;;74.13;;
8944;SDS011;4507;40.232;29.132;2023-03-25T04:50:52;131.07;;;78.80;;
8944;SDS011;4507;40.232;29.132;2023-03-25T04:53:21;137.73;;;78.23;;
8944;SDS011;4507;40.232;29.132;2023-03-25T04:55:50;134.97;;;77.43;;
8944;SDS011;4507;40.232;29.132;2023-03-25T04:58:20;132.43;;;80.63;;
8944;SDS011;4507;40.232;29.132;2023-03-25T05:00:50;116.80;;;76.97;;
8944;SDS011;4507;40.232;29.132;2023-03-25T05:03:19;113.00;;;75.47;;
8944;SDS011;4507;40.232;29.132;2023-03-25T05:05:50;109.50;;;75.23;;
8944;SDS011;4507;40.232;29.132;2023-03-25T05:08:19;103.07;;;74.47;;
8944;SDS011;4507;40.232;29.132;2023-03-25T05:10:48;114.00;;;72.00;;
8944;SDS011;4507;40.232;29.132;2023-03-25T05:13:18;155.70;;;79.63;;
8944;SDS011;4507;40.232;29.132;2023-03-25T05:15:47;138.13;;;81.13;;
8944;SDS011;4507;40.232;29.132;2023-03-25T05:18:18;138.17;;;84.47;;
8944;SDS011;4507;40.232;29.132;2023-03-25T05:20:47;213.13;;;143.70;;
8944;SDS011;4507;40.232;29.132;2023-03-25T05:23:17;397.90;;;279.97;;
8944;SDS011;4507;40.232;29.132;2023-03-25T05:25:48;475.63;;;345.83;;
8944;SDS011;4507;40.232;29.132;2023-03-25T05:28:18;232.23;;;157.43;;
8944;SDS011;4507;40.232;29.132;2023-03-25T05:30:47;121.43;;;86.57;;
8944;SDS011;4507;40.232;29.132;2023-03-25T05:33:18;99.53;;;69.93;;
8944;SDS011;4507;40.232;29.132;2023-03-25T05:35:47;92.47;;;62.47;;
8944;SDS011;4507;40.232;29.132;2023-03-25T05:38:16;88.60;;;59.27;;
8944;SDS011;4507;40.232;29.132;2023-03-25T05:40:45;92.17;;;61.23;;
8944;SDS011;4507;40.232;29.132;2023-03-25T05:43:16;87.00;;;63.37;;
8944;SDS011;4507;40.232;29.132;2023-03-25T05:45:50;98.43;;;68.13;;
8944;SDS011;4507;40.232;29.132;2023-03-25T05:48:23;116.67;;;87.23;;
8944;SDS011;4507;40.232;29.132;2023-03-25T05:50:52;128.90;;;91.90;;
8944;SDS011;4507;40.232;29.132;2023-03-25T05:53:22;119.20;;;91.37;;
8944;SDS011;4507;40.232;29.132;2023-03-25T05:55:51;131.93;;;102.50;;
8944;SDS011;4507;40.232;29.132;2023-03-25T05:58:21;98.97;;;81.40;;
8944;SDS011;4507;40.232;29.132;2023-03-25T06:00:52;130.17;;;99.53;;
8944;SDS011;4507;40.232;29.132;2023-03-25T06:03:21;115.60;;;84.87;;
8944;SDS011;4507;40.232;29.132;2023-03-25T06:05:52;116.20;;;75.57;;
8944;SDS011;4507;40.232;29.132;2023-03-25T06:08:25;93.90;;;65.77;;
8944;SDS011;4507;40.232;29.132;2023-03-25T06:11:14;102.97;;;64.23;;
8944;SDS011;4507;40.232;29.132;2023-03-25T06:13:43;93.13;;;64.07;;
8944;SDS011;4507;40.232;29.132;2023-03-25T06:16:17;86.33;;;60.40;;
8944;SDS011;4507;40.232;29.132;2023-03-25T06:18:49;73.20;;;55.90;;
8944;SDS011;4507;40.232;29.132;2023-03-25T06:21:22;72.00;;;55.30;;
8944;SDS011;4507;40.232;29.132;2023-03-25T06:23:52;67.67;;;54.60;;
8944;SDS011;4507;40.232;29.132;2023-03-25T06:26:22;62.13;;;52.57;;
8944;SDS011;4507;40.232;29.132;2023-03-25T06:28:51;65.03;;;53.00;;
8944;SDS011;4507;40.232;29.132;2023-03-25T06:31:22;64.33;;;53.30;;
8944;SDS011;4507;40.232;29.132;2023-03-25T06:33:53;67.33;;;55.37;;
8944;SDS011;4507;40.232;29.132;2023-03-25T06:36:23;66.60;;;51.87;;
8944;SDS011;4507;40.232;29.132;2023-03-25T06:38:52;70.13;;;52.30;;
8944;SDS011;4507;40.232;29.132;2023-03-25T06:41:22;84.83;;;55.77;;
8944;SDS011;4507;40.232;29.132;2023-03-25T06:44:02;80.30;;;54.03;;
8944;SDS011;4507;40.232;29.132;2023-03-25T06:46:51;111.60;;;65.07;;
8944;SDS011;4507;40.232;29.132;2023-03-25T06:49:38;80.13;;;58.70;;
8944;SDS011;4507;40.232;29.132;2023-03-25T06:52:07;71.80;;;56.53;;
8944;SDS011;4507;40.232;29.132;2023-03-25T06:54:40;91.90;;;57.27;;
8944;SDS011;4507;40.232;29.132;2023-03-25T06:57:15;73.10;;;56.90;;
8944;SDS011;4507;40.232;29.132;2023-03-25T06:59:45;79.90;;;56.23;;
8944;SDS011;4507;40.232;29.132;2023-03-25T07:02:17;75.70;;;56.47;;
8944;SDS011;4507;40.232;29.132;2023-03-25T07:04:48;69.77;;;57.63;;
8944;SDS011;4507;40.232;29.132;2023-03-25T07:07:18;67.93;;;57.17;;
8944;SDS011;4507;40.232;29.132;2023-03-25T07:09:51;109.63;;;58.73;;
8944;SDS011;4507;40.232;29.132;2023-03-25T07:12:21;67.57;;;54.27;;
8944;SDS011;4507;40.232;29.132;2023-03-25T07:14:51;70.63;;;53.47;;
8944;SDS011;4507;40.232;29.132;2023-03-25T07:17:22;84.83;;;54.57;;
8944;SDS011;4507;40.232;29.132;2023-03-25T07:19:53;77.07;;;55.47;;
8944;SDS011;4507;40.232;29.132;2023-03-25T07:22:21;81.20;;;53.70;;
8944;SDS011;4507;40.232;29.132;2023-03-25T07:24:50;78.27;;;55.33;;
8944;SDS011;4507;40.232;29.132;2023-03-25T07:27:20;76.83;;;54.47;;
8944;SDS011;4507;40.232;29.132;2023-03-25T07:30:02;66.00;;;55.13;;
8944;SDS011;4507;40.232;29.132;2023-03-25T07:32:33;72.87;;;54.03;;
8944;SDS011;4507;40.232;29.132;2023-03-25T07:35:02;72.97;;;54.70;;
8944;SDS011;4507;40.232;29.132;2023-03-25T07:37:32;71.30;;;52.70;;
8944;SDS011;4507;40.232;29.132;2023-03-25T07:40:01;69.73;;;53.03;;
8944;SDS011;4507;40.232;29.132;2023-03-25T07:42:30;78.87;;;52.00;;
8944;SDS011;4507;40.232;29.132;2023-03-25T07:45:19;70.60;;;48.70;;
8944;SDS011;4507;40.232;29.132;2023-03-25T07:47:52;65.30;;;48.90;;
8944;SDS011;4507;40.232;29.132;2023-03-25T07:50:21;70.13;;;49.37;;
8944;SDS011;4507;40.232;29.132;2023-03-25T07:52:52;65.57;;;48.90;;
8944;SDS011;4507;40.232;29.132;2023-03-25T07:55:21;77.90;;;51.03;;
8944;SDS011;4507;40.232;29.132;2023-03-25T07:57:50;74.50;;;50.47;;
8944;SDS011;4507;40.232;29.132;2023-03-25T08:00:19;71.07;;;49.77;;
8944;SDS011;4507;40.232;29.132;2023-03-25T08:02:49;69.53;;;49.60;;
8944;SDS011;4507;40.232;29.132;2023-03-25T08:05:19;74.27;;;48.93;;
8944;SDS011;4507;40.232;29.132;2023-03-25T08:07:48;64.20;;;44.30;;
8944;SDS011;4507;40.232;29.132;2023-03-25T08:10:18;56.37;;;43.93;;
8944;SDS011;4507;40.232;29.132;2023-03-25T08:12:50;72.80;;;45.83;;
8944;SDS011;4507;40.232;29.132;2023-03-25T08:15:19;67.83;;;46.30;;
8944;SDS011;4507;40.232;29.132;2023-03-25T08:17:50;66.50;;;45.40;;
8944;SDS011;4507;40.232;29.132;2023-03-25T08:20:21;64.60;;;43.80;;
8944;SDS011;4507;40.232;29.132;2023-03-25T08:22:50;55.10;;;40.23;;
8944;SDS011;4507;40.232;29.132;2023-03-25T08:25:19;63.43;;;41.93;;
8944;SDS011;4507;40.232;29.132;2023-03-25T08:27:48;53.97;;;42.43;;
8944;SDS011;4507;40.232;29.132;2023-03-25T08:30:17;74.83;;;41.90;;
8944;SDS011;4507;40.232;29.132;2023-03-25T08:32:46;53.97;;;40.97;;
8944;SDS011;4507;40.232;29.132;2023-03-25T08:35:22;51.33;;;39.30;;
8944;SDS011;4507;40.232;29.132;2023-03-25T08:37:51;70.47;;;41.33;;
8944;SDS011;4507;40.232;29.132;2023-03-25T08:40:20;54.73;;;40.57;;
8944;SDS011;4507;40.232;29.132;2023-03-25T08:42:49;55.37;;;41.50;;
8944;SDS011;4507;40.232;29.132;2023-03-25T08:45:18;57.47;;;43.03;;
8944;SDS011;4507;40.232;29.132;2023-03-25T08:47:46;56.67;;;39.97;;
8944;SDS011;4507;40.232;29.132;2023-03-25T08:50:15;54.70;;;43.50;;
8944;SDS011;4507;40.232;29.132;2023-03-25T08:52:46;55.70;;;41.70;;
8944;SDS011;4507;40.232;29.132;2023-03-25T08:55:15;53.73;;;40.77;;
8944;SDS011;4507;40.232;29.132;2023-03-25T08:57:44;50.57;;;41.13;;
8944;SDS011;4507;40.232;29.132;2023-03-25T09:00:13;56.77;;;44.50;;
8944;SDS011;4507;40.232;29.132;2023-03-25T09:02:43;88.87;;;48.67;;
8944;SDS011;4507;40.232;29.132;2023-03-25T09:05:12;61.70;;;46.30;;
8944;SDS011;4507;40.232;29.132;2023-03-25T09:07:41;61.03;;;47.27;;
8944;SDS011;4507;40.232;29.132;2023-03-25T09:10:12;60.93;;;48.87;;
8944;SDS011;4507;40.232;29.132;2023-03-25T09:13:00;56.57;;;47.30;;
8944;SDS011;4507;40.232;29.132;2023-03-25T09:15:28;66.83;;;48.07;;
8944;SDS011;4507;40.232;29.132;2023-03-25T09:17:58;54.63;;;46.37;;
8944;SDS011;4507;40.232;29.132;2023-03-25T09:20:27;63.90;;;44.10;;
8944;SDS011;4507;40.232;29.132;2023-03-25T09:22:56;61.33;;;45.47;;
8944;SDS011;4507;40.232;29.132;2023-03-25T09:25:26;56.23;;;46.83;;
8944;SDS011;4507;40.232;29.132;2023-03-25T09:27:55;59.70;;;45.10;;
8944;SDS011;4507;40.232;29.132;2023-03-25T09:30:24;55.10;;;43.23;;
8944;SDS011;4507;40.232;29.132;2023-03-25T09:32:53;51.93;;;43.83;;
8944;SDS011;4507;40.232;29.132;2023-03-25T09:35:22;51.87;;;39.33;;
8944;SDS011;4507;40.232;29.132;2023-03-25T09:37:51;49.43;;;40.10;;
8944;SDS011;4507;40.232;29.132;2023-03-25T09:40:20;50.67;;;41.47;;
8944;SDS011;4507;40.232;29.132;2023-03-25T09:42:55;45.97;;;39.03;;
8944;SDS011;4507;40.232;29.132;2023-03-25T09:45:34;40.43;;;34.47;;
8944;SDS011;4507;40.232;29.132;2023-03-25T09:48:08;51.33;;;33.73;;
8944;SDS011;4507;40.232;29.132;2023-03-25T09:50:46;39.33;;;32.70;;
8944;SDS011;4507;40.232;29.132;2023-03-25T09:53:21;47.23;;;32.97;;
8944;SDS011;4507;40.232;29.132;2023-03-25T09:55:54;40.73;;;30.53;;
8944;SDS011;4507;40.232;29.132;2023-03-25T09:58:29;42.23;;;34.30;;
8944;SDS011;4507;40.232;29.132;2023-03-25T10:01:11;42.50;;;35.00;;
8944;SDS011;4507;40.232;29.132;2023-03-25T10:03:56;46.80;;;36.43;;
8944;SDS011;4507;40.232;29.132;2023-03-25T10:06:42;46.93;;;36.33;;
8944;SDS011;4507;40.232;29.132;2023-03-25T10:09:28;55.67;;;41.70;;
8944;SDS011;4507;40.232;29.132;2023-03-25T10:12:11;48.77;;;40.93;;
8944;SDS011;4507;40.232;29.132;2023-03-25T10:14:58;43.60;;;36.17;;
8944;SDS011;4507;40.232;29.132;2023-03-25T10:17:36;41.07;;;34.43;;
8944;SDS011;4507;40.232;29.132;2023-03-25T10:20:14;47.03;;;34.37;;
8944;SDS011;4507;40.232;29.132;2023-03-25T10:22:54;53.53;;;36.77;;
8944;SDS011;4507;40.232;29.132;2023-03-25T10:25:32;45.93;;;35.07;;
8944;SDS011;4507;40.232;29.132;2023-03-25T10:28:08;49.20;;;34.13;;
8944;SDS011;4507;40.232;29.132;2023-03-25T10:31:03;40.30;;;33.00;;
8944;SDS011;4507;40.232;29.132;2023-03-25T10:33:38;38.10;;;32.70;;
8944;SDS011;4507;40.232;29.132;2023-03-25T10:36:10;45.77;;;34.57;;
8944;SDS011;4507;40.232;29.132;2023-03-25T10:38:43;44.80;;;33.27;;
8944;SDS011;4507;40.232;29.132;2023-03-25T10:41:18;49.50;;;33.00;;
8944;SDS011;4507;40.232;29.132;2023-03-25T10:43:51;41.47;;;30.90;;
8944;SDS011;4507;40.232;29.132;2023-03-25T10:46:25;37.57;;;29.73;;
8944;SDS011;4507;40.232;29.132;2023-03-25T10:48:58;33.60;;;29.67;;
8944;SDS011;4507;40.232;29.132;2023-03-25T10:51:28;36.63;;;29.90;;
8944;SDS011;4507;40.232;29.132;2023-03-25T10:53:59;37.20;;;27.93;;
8944;SDS011;4507;40.232;29.132;2023-03-25T10:56:29;39.57;;;28.93;;
8944;SDS011;4507;40.232;29.132;2023-03-25T10:59:05;40.40;;;27.20;;
8944;SDS011;4507;40.232;29.132;2023-03-25T11:01:41;26.50;;;22.97;;
8944;SDS011;4507;40.232;29.132;2023-03-25T11:04:12;28.93;;;25.53;;
8944;SDS011;4507;40.232;29.132;2023-03-25T11:06:44;38.27;;;27.97;;
8944;SDS011;4507;40.232;29.132;2023-03-25T11:09:16;35.83;;;29.03;;
8944;SDS011;4507;40.232;29.132;2023-03-25T11:11:51;52.60;;;32.10;;
8944;SDS011;4507;40.232;29.132;2023-03-25T11:14:21;51.20;;;27.67;;
8944;SDS011;4507;40.232;29.132;2023-03-25T11:16:53;55.90;;;35.87;;
8944;SDS011;4507;40.232;29.132;2023-03-25T11:19:24;30.77;;;25.20;;
8944;SDS011;4507;40.232;29.132;2023-03-25T11:21:56;32.67;;;22.97;;
8944;SDS011;4507;40.232;29.132;2023-03-25T11:24:47;36.03;;;22.63;;
8944;SDS011;4507;40.232;29.132;2023-03-25T11:27:21;31.97;;;22.67;;
8944;SDS011;4507;40.232;29.132;2023-03-25T11:29:52;30.57;;;22.27;;
8944;SDS011;4507;40.232;29.132;2023-03-25T11:32:31;27.03;;;19.20;;
8944;SDS011;4507;40.232;29.132;2023-03-25T11:35:02;20.73;;;15.63;;
8944;SDS011;4507;40.232;29.132;2023-03-25T11:37:36;33.47;;;19.97;;
8944;SDS011;4507;40.232;29.132;2023-03-25T11:40:12;28.73;;;19.87;;
8944;SDS011;4507;40.232;29.132;2023-03-25T11:42:44;56.87;;;22.40;;
8944;SDS011;4507;40.232;29.132;2023-03-25T11:45:19;37.97;;;18.83;;
8944;SDS011;4507;40.232;29.132;2023-03-25T11:47:51;22.87;;;19.30;;
8944;SDS011;4507;40.232;29.132;2023-03-25T11:50:28;31.30;;;21.40;;
8944;SDS011;4507;40.232;29.132;2023-03-25T11:53:16;33.23;;;19.77;;
8944;SDS011;4507;40.232;29.132;2023-03-25T11:55:47;20.53;;;16.60;;
8944;SDS011;4507;40.232;29.132;2023-03-25T11:58:20;22.77;;;17.80;;
8944;SDS011;4507;40.232;29.132;2023-03-25T12:00:59;24.43;;;18.90;;
8944;SDS011;4507;40.232;29.132;2023-03-25T12:03:31;23.07;;;18.90;;
8944;SDS011;4507;40.232;29.132;2023-03-25T12:06:03;43.47;;;19.43;;
8944;SDS011;4507;40.232;29.132;2023-03-25T12:08:40;18.17;;;14.63;;
8944;SDS011;4507;40.232;29.132;2023-03-25T12:11:11;19.07;;;13.43;;
8944;SDS011;4507;40.232;29.132;2023-03-25T12:13:47;18.80;;;14.60;;
8944;SDS011;4507;40.232;29.132;2023-03-25T12:16:35;16.43;;;14.17;;
8944;SDS011;4507;40.232;29.132;2023-03-25T12:19:18;23.80;;;15.60;;
8944;SDS011;4507;40.232;29.132;2023-03-25T12:21:57;23.23;;;17.10;;
8944;SDS011;4507;40.232;29.132;2023-03-25T12:24:39;19.63;;;17.43;;
8944;SDS011;4507;40.232;29.132;2023-03-25T12:27:23;21.97;;;18.10;;
8944;SDS011;4507;40.232;29.132;2023-03-25T12:30:06;20.50;;;18.27;;
8944;SDS011;4507;40.232;29.132;2023-03-25T12:32:45;17.77;;;15.67;;
8944;SDS011;4507;40.232;29.132;2023-03-25T12:35:25;23.40;;;17.63;;
8944;SDS011;4507;40.232;29.132;2023-03-25T12:38:07;32.87;;;17.43;;
8944;SDS011;4507;40.232;29.132;2023-03-25T12:40:58;25.90;;;19.43;;
8944;SDS011;4507;40.232;29.132;2023-03-25T12:43:45;28.17;;;21.43;;
8944;SDS011;4507;40.232;29.132;2023-03-25T12:46:38;28.00;;;22.70;;
8944;SDS011;4507;40.232;29.132;2023-03-25T12:49:34;34.43;;;24.50;;
8944;SDS011;4507;40.232;29.132;2023-03-25T12:52:16;30.27;;;23.83;;
8944;SDS011;4507;40.232;29.132;2023-03-25T12:54:54;38.77;;;24.93;;
8944;SDS011;4507;40.232;29.132;2023-03-25T12:57:50;29.63;;;24.17;;
8944;SDS011;4507;40.232;29.132;2023-03-25T13:00:31;35.97;;;25.20;;
8944;SDS011;4507;40.232;29.132;2023-03-25T13:03:13;31.57;;;26.77;;
8944;SDS011;4507;40.232;29.132;2023-03-25T13:06:05;53.10;;;27.90;;
8944;SDS011;4507;40.232;29.132;2023-03-25T13:08:44;41.30;;;26.10;;
8944;SDS011;4507;40.232;29.132;2023-03-25T13:11:20;47.77;;;27.33;;
8944;SDS011;4507;40.232;29.132;2023-03-25T13:13:54;32.53;;;25.73;;
8944;SDS011;4507;40.232;29.132;2023-03-25T13:16:26;33.23;;;26.70;;
8944;SDS011;4507;40.232;29.132;2023-03-25T13:18:59;36.70;;;28.00;;
8944;SDS011;4507;40.232;29.132;2023-03-25T13:21:51;34.70;;;27.70;;
8944;SDS011;4507;40.232;29.132;2023-03-25T13:24:26;36.60;;;27.07;;
8944;SDS011;4507;40.232;29.132;2023-03-25T13:27:02;46.07;;;30.50;;
8944;SDS011;4507;40.232;29.132;2023-03-25T13:29:36;36.20;;;27.07;;
8944;SDS011;4507;40.232;29.132;2023-03-25T13:32:10;37.87;;;26.57;;
8944;SDS011;4507;40.232;29.132;2023-03-25T13:34:46;43.17;;;26.77;;
8944;SDS011;4507;40.232;29.132;2023-03-25T13:37:20;35.07;;;26.00;;
8944;SDS011;4507;40.232;29.132;2023-03-25T13:40:04;34.23;;;24.93;;
8944;SDS011;4507;40.232;29.132;2023-03-25T13:42:45;31.53;;;25.90;;
8944;SDS011;4507;40.232;29.132;2023-03-25T13:45:38;38.77;;;26.50;;
8944;SDS011;4507;40.232;29.132;2023-03-25T13:48:14;30.33;;;25.57;;
8944;SDS011;4507;40.232;29.132;2023-03-25T13:50:46;34.47;;;26.53;;
8944;SDS011;4507;40.232;29.132;2023-03-25T13:53:18;43.90;;;28.17;;
8944;SDS011;4507;40.232;29.132;2023-03-25T13:55:55;51.93;;;27.83;;
8944;SDS011;4507;40.232;29.132;2023-03-25T14:10:49;38.03;;;27.93;;
8944;SDS011;4507;40.232;29.132;2023-03-25T14:13:29;34.23;;;28.30;;
8944;SDS011;4507;40.232;29.132;2023-03-25T14:16:03;35.47;;;27.33;;
8944;SDS011;4507;40.232;29.132;2023-03-25T14:18:38;36.33;;;24.80;;
8944;SDS011;4507;40.232;29.132;2023-03-25T14:21:13;34.77;;;24.57;;
8944;SDS011;4507;40.232;29.132;2023-03-25T14:24:02;40.63;;;26.53;;
8944;SDS011;4507;40.232;29.132;2023-03-25T14:26:35;35.93;;;25.33;;
8944;SDS011;4507;40.232;29.132;2023-03-25T14:29:14;37.77;;;27.00;;
8944;SDS011;4507;40.232;29.132;2023-03-25T14:32:27;33.63;;;28.93;;
8944;SDS011;4507;40.232;29.132;2023-03-25T14:44:28;40.97;;;25.90;;
8944;SDS011;4507;40.232;29.132;2023-03-25T14:46:59;47.73;;;27.90;;
8944;SDS011;4507;40.232;29.132;2023-03-25T14:50:29;43.20;;;27.40;;
8944;SDS011;4507;40.232;29.132;2023-03-25T14:53:02;37.13;;;28.17;;
8944;SDS011;4507;40.232;29.132;2023-03-25T14:55:33;42.43;;;27.83;;
8944;SDS011;4507;40.232;29.132;2023-03-25T14:58:15;33.73;;;25.73;;
8944;SDS011;4507;40.232;29.132;2023-03-25T15:00:50;29.67;;;24.37;;
8944;SDS011;4507;40.232;29.132;2023-03-25T15:03:23;33.47;;;28.30;;
8944;SDS011;4507;40.232;29.132;2023-03-25T15:05:59;48.67;;;29.50;;
8944;SDS011;4507;40.232;29.132;2023-03-25T15:08:29;50.43;;;31.03;;
8944;SDS011;4507;40.232;29.132;2023-03-25T15:11:03;37.47;;;23.70;;
8944;SDS011;4507;40.232;29.132;2023-03-25T15:13:37;30.90;;;24.57;;
8944;SDS011;4507;40.232;29.132;2023-03-25T15:16:15;38.17;;;27.23;;
8944;SDS011;4507;40.232;29.132;2023-03-25T15:18:57;40.63;;;27.07;;
8944;SDS011;4507;40.232;29.132;2023-03-25T15:24:48;34.83;;;25.87;;
8944;SDS011;4507;40.232;29.132;2023-03-25T15:27:29;37.33;;;26.53;;
8944;SDS011;4507;40.232;29.132;2023-03-25T15:30:22;37.33;;;24.67;;
8944;SDS011;4507;40.232;29.132;2023-03-25T15:33:22;38.10;;;24.53;;
8944;SDS011;4507;40.232;29.132;2023-03-25T15:36:27;43.63;;;24.27;;
8944;SDS011;4507;40.232;29.132;2023-03-25T15:39:12;32.90;;;23.80;;
8944;SDS011;4507;40.232;29.132;2023-03-25T15:45:07;48.33;;;25.30;;
8944;SDS011;4507;40.232;29.132;2023-03-25T15:48:07;45.97;;;24.97;;
8944;SDS011;4507;40.232;29.132;2023-03-25T15:53:48;41.20;;;26.30;;
8944;SDS011;4507;40.232;29.132;2023-03-25T15:56:28;31.33;;;25.07;;
8944;SDS011;4507;40.232;29.132;2023-03-25T15:59:00;35.73;;;25.60;;
8944;SDS011;4507;40.232;29.132;2023-03-25T16:01:34;34.30;;;25.20;;